WetterOnline ( https://www.wetteronline.de )

Wetter aktuell Heuweiler

Aktuelles Wetter: Freiburg/Flugplatz (236m)

6-stündlich | Neueste Meldungen
Ortszeit Temperatur Wetter
Sa, 28.11. 19:00 0.4° C bedeckt
Sa, 28.11. 13:00 1.2° C bedeckt
Sa, 28.11. 7:00 0.5° C Nebel
Sa, 28.11. 1:00 0.8° C Nebel
Fr, 27.11. 19:00 3.4° C wolkenlos
Fr, 27.11. 13:00 7.3° C wolkenlos
Fr, 27.11. 7:00 0.7° C bedeckt
Fr, 27.11. 1:00 -1.7° C Nebel
Ortszeit Temperatur Wetter
Sa, 28.11. 23:30 0.7° C Nebel
Sa, 28.11. 23:20 0.7° C Nebel
Sa, 28.11. 23:10 0.7° C Nebel
Sa, 28.11. 23:00 0.8° C Nebel
Sa, 28.11. 22:50 0.8° C Nebel
Sa, 28.11. 22:40 0.9° C Nebel
Sa, 28.11. 22:30 0.9° C bedeckt
Sa, 28.11. 22:00 0.9° C bedeckt
Sa, 28.11. 21:30 0.9° C bedeckt
Sa, 28.11. 21:00 0.8° C bedeckt
Sa, 28.11. 20:30 0.8° C bedeckt
Ortszeit Relative Feuchte Sichtweite
Sa, 28.11. 19:00 99% 1.9 km
Sa, 28.11. 13:00 96% 4.8 km
Sa, 28.11. 7:00 99% 0.7 km
Sa, 28.11. 1:00 100% 100 m
Fr, 27.11. 19:00 92% 7 km
Fr, 27.11. 13:00 72% 17 km
Fr, 27.11. 7:00 97% 5.0 km
Fr, 27.11. 1:00 97% 0.2 km
Ortszeit Relative Feuchte Sichtweite
Sa, 28.11. 23:30 100% 0.2 km
Sa, 28.11. 23:20 100% -
Sa, 28.11. 23:10 99% -
Sa, 28.11. 23:00 99% 0.4 km
Sa, 28.11. 22:50 99% -
Sa, 28.11. 22:40 99% -
Sa, 28.11. 22:30 99% 1.0 km
Sa, 28.11. 22:00 97% 1.1 km
Sa, 28.11. 21:30 98% 1.3 km
Sa, 28.11. 21:00 98% 1.9 km
Sa, 28.11. 20:30 97% 2.9 km
Ortszeit Niederschlagsmenge Niederschlagsart
Sa, 28.11. 19:00 0.0 l/m2 in 12 Std. -
Sa, 28.11. 13:00 0.0 l/m2 in 6 Std. -
Sa, 28.11. 7:00 0.0 l/m2 in 12 Std. -
Sa, 28.11. 1:00 0.0 l/m2 in 6 Std. -
Fr, 27.11. 19:00 0.0 l/m2 in 12 Std. -
Fr, 27.11. 13:00 0.0 l/m2 in 6 Std. -
Fr, 27.11. 7:00 0.0 l/m2 in 12 Std. -
Fr, 27.11. 1:00 0.0 l/m2 in 6 Std. -
Ortszeit Niederschlagsmenge Niederschlagsart
Sa, 28.11. 23:30 0.0 l/m2 in 1 Std. -
Sa, 28.11. 23:20 keine Meldung -
Sa, 28.11. 23:10 keine Meldung -
Sa, 28.11. 23:00 0.0 l/m2 in 1 Std. -
Sa, 28.11. 22:50 keine Meldung -
Sa, 28.11. 22:40 keine Meldung -
Sa, 28.11. 22:30 0.0 l/m2 in 1 Std. -
Sa, 28.11. 22:00 0.0 l/m2 in 1 Std. -
Sa, 28.11. 21:30 0.0 l/m2 in 1 Std. -
Sa, 28.11. 21:00 0.0 l/m2 in 1 Std. -
Sa, 28.11. 20:30 0.0 l/m2 in 1 Std. -
Ortszeit Stärke Spitze Richtung
km/h Bft. km/h Grad Sektor
Sa, 28.11. 19:00 7 2 14 300° NW
Sa, 28.11. 13:00 4 1 11 90° O
Sa, 28.11. 7:00 6 1 9 10° N
Sa, 28.11. 1:00 4 1 11 270° W
Fr, 27.11. 19:00 7 2 11 360° N
Fr, 27.11. 13:00 4 1 7 220° SW
Fr, 27.11. 7:00 0 0 7 - -
Fr, 27.11. 1:00 2 1 9 270° W
Ortszeit Stärke Spitze Richtung
km/h Bft. km/h Grad Sektor
Sa, 28.11. 23:30 6 1 9 330° NW
Sa, 28.11. 23:20 6 1 - 330° NW
Sa, 28.11. 23:10 7 2 - 320° NW
Sa, 28.11. 23:00 7 2 11 330° NW
Sa, 28.11. 22:50 7 2 - 330° NW
Sa, 28.11. 22:40 7 2 - 330° NW
Sa, 28.11. 22:30 7 2 11 300° NW
Sa, 28.11. 22:00 4 1 7 320° NW
Sa, 28.11. 21:30 4 1 7 120° SO
Sa, 28.11. 21:00 4 1 7 100° O
Sa, 28.11. 20:30 6 1 7 40° NO
Ortszeit Untergrenze Bedeckung Gattung
total tief tief mittel hoch
Sa, 28.11. 19:00 60 m 8/8 8/8 - - -
Sa, 28.11. 13:00 90 m 8/8 8/8 - - -
Sa, 28.11. 7:00 30 m 8/8 8/8 - - -
Sa, 28.11. 1:00 <30 m 8/8 0/8 - - -
Fr, 27.11. 19:00 - 0/8 0/8 - - -
Fr, 27.11. 13:00 - 0/8 0/8 - - -
Fr, 27.11. 7:00 1800 m 8/8 8/8 - - -
Fr, 27.11. 1:00 <30 m 7/8 0/8 - - -
Ortszeit Bedeckungsgrad in Achtel und Wolkenuntergrenze
Sa, 28.11. 23:30 8(<30m)
Sa, 28.11. 23:20 8(<30m)
Sa, 28.11. 23:10 8(30m)
Sa, 28.11. 23:00 8(30m)
Sa, 28.11. 22:50 8(30m)
Sa, 28.11. 22:40 8(30m)
Sa, 28.11. 22:30 8(30m)
Sa, 28.11. 22:00 8(30m)
Sa, 28.11. 21:30 8(60m)
Sa, 28.11. 21:00 8(60m)
Sa, 28.11. 20:30 8(60m)
Ortszeit Luftdruck NN (hPa) Tendenz (hPa in 3 Std.)
Sa, 28.11. 19:00 1020 + 0,4
Sa, 28.11. 13:00 1020 - 1,0
Sa, 28.11. 7:00 1020 - 0,1
Sa, 28.11. 1:00 1021 - 0,1
Fr, 27.11. 19:00 1020 + 0,3
Fr, 27.11. 13:00 1020 - 1,2
Fr, 27.11. 7:00 1022 - 0,5
Fr, 27.11. 1:00 1023 + 0,1
Ortszeit Luftdruck NN (hPa) Tendenz (hPa in 3 Std.)
Sa, 28.11. 23:30 1021 + 0,5
Sa, 28.11. 23:20 1021 keine Meldung
Sa, 28.11. 23:10 1021 keine Meldung
Sa, 28.11. 23:00 1021 + 0,6
Sa, 28.11. 22:50 1021 keine Meldung
Sa, 28.11. 22:40 1020 keine Meldung
Sa, 28.11. 22:30 1020 + 0,7
Sa, 28.11. 22:00 1020 + 0,8
Sa, 28.11. 21:30 1020 + 1,2
Sa, 28.11. 21:00 1020 + 1,0
Sa, 28.11. 20:30 1020 + 0,8
Ortszeit Schneehöhe (cm)
Sa, 28.11. 19:00 0
Sa, 28.11. 13:00 0
Sa, 28.11. 7:00 0
Sa, 28.11. 1:00 0
Fr, 27.11. 19:00 0
Fr, 27.11. 13:00 0
Fr, 27.11. 7:00 0
Fr, 27.11. 1:00 0
Ortszeit Schneehöhe (cm)
Sa, 28.11. 23:30 0
Sa, 28.11. 23:20 0
Sa, 28.11. 23:10 0
Sa, 28.11. 23:00 0
Sa, 28.11. 22:50 0
Sa, 28.11. 22:40 0
Sa, 28.11. 22:30 0
Sa, 28.11. 22:00 0
Sa, 28.11. 21:30 0
Sa, 28.11. 21:00 0
Sa, 28.11. 20:30 0
Link zu dieser Seite / Seite empfehlen

Das Wetter in ...